createdAt,value
2022-10-30T00:01:21.260Z,25.10
2022-10-30T00:03:49.568Z,25.10
2022-10-30T00:08:50.905Z,25.10
2022-10-30T00:11:19.053Z,25.20
2022-10-30T00:13:47.202Z,25.10
2022-10-30T00:16:15.548Z,25.10
2022-10-30T00:18:43.693Z,25.10
2022-10-30T00:21:14.235Z,25.10
2022-10-30T00:23:54.040Z,25.10
2022-10-30T00:26:23.675Z,25.00
2022-10-30T00:28:53.203Z,25.10
2022-10-30T00:31:21.857Z,25.10
2022-10-30T00:33:54.482Z,25.10
2022-10-30T00:36:23.581Z,25.10
2022-10-30T00:38:51.885Z,25.10
2022-10-30T00:41:24.678Z,25.10
2022-10-30T00:43:53.453Z,25.10
2022-10-30T00:46:31.547Z,25.10
2022-10-30T00:49:15.766Z,25.10
2022-10-30T00:51:51.205Z,25.10
2022-10-30T00:54:20.861Z,25.10
2022-10-30T00:56:50.694Z,25.10
2022-10-30T00:59:28.700Z,25.10
2022-10-30T01:01:58.349Z,25.10
2022-10-30T01:04:30.106Z,25.10
2022-10-30T01:07:00.314Z,25.10
2022-10-30T01:09:28.685Z,25.00
2022-10-30T01:11:56.956Z,25.00
2022-10-30T01:14:26.179Z,25.10
2022-10-30T01:17:25.233Z,25.10
2022-10-30T01:20:46.422Z,25.10
2022-10-30T01:23:49.211Z,25.00
2022-10-30T01:26:38.282Z,25.00
2022-10-30T01:29:51.229Z,25.00
2022-10-30T01:32:37.626Z,25.00
2022-10-30T01:35:24.494Z,25.00
2022-10-30T01:38:14.513Z,25.00
2022-10-30T01:40:45.233Z,25.00
2022-10-30T01:43:13.367Z,25.00
2022-10-30T01:46:16.827Z,25.00
2022-10-30T01:48:48.854Z,25.00
2022-10-30T01:51:41.918Z,24.90
2022-10-30T01:54:43.494Z,24.90
2022-10-30T01:57:14.834Z,25.00
2022-10-30T02:00:02.350Z,25.00
2022-10-30T02:02:41.822Z,24.90
2022-10-30T02:05:20.477Z,25.00
2022-10-30T02:07:48.973Z,25.00
2022-10-30T02:10:18.217Z,25.00
2022-10-30T02:12:46.740Z,24.90
2022-10-30T02:15:16.263Z,24.90
2022-10-30T02:17:44.708Z,24.90
2022-10-30T02:20:17.760Z,24.90
2022-10-30T02:22:46.572Z,24.80
2022-10-30T02:25:15.222Z,24.80
2022-10-30T02:27:43.828Z,24.90
2022-10-30T02:30:13.803Z,24.80
2022-10-30T02:32:42.025Z,24.80
2022-10-30T02:35:10.484Z,24.80
2022-10-30T02:37:38.828Z,24.80
2022-10-30T02:40:08.063Z,24.80
2022-10-30T02:42:36.755Z,24.80
2022-10-30T02:45:05.166Z,24.80
2022-10-30T02:47:33.383Z,24.90
2022-10-30T02:50:01.513Z,24.80
2022-10-30T02:52:29.650Z,24.80
2022-10-30T02:54:57.879Z,24.80
2022-10-30T02:57:26.057Z,24.80
2022-10-30T02:59:54.302Z,24.80
2022-10-30T03:02:22.513Z,24.80
2022-10-30T03:04:51.300Z,24.70
2022-10-30T03:07:19.686Z,24.70
2022-10-30T03:09:47.802Z,24.70
2022-10-30T03:12:15.848Z,24.70
2022-10-30T03:14:46.315Z,24.70
2022-10-30T03:17:14.467Z,24.70
2022-10-30T03:19:42.456Z,24.70
2022-10-30T03:22:11.027Z,24.70
2022-10-30T03:24:39.470Z,24.70
2022-10-30T03:27:07.725Z,24.70
2022-10-30T03:29:35.910Z,24.80
2022-10-30T03:32:09.064Z,24.80
2022-10-30T03:34:44.564Z,24.80
2022-10-30T03:37:12.850Z,24.80
2022-10-30T03:39:41.195Z,24.80
2022-10-30T03:42:09.218Z,24.80
2022-10-30T03:44:37.452Z,24.80
2022-10-30T03:47:06.050Z,24.80
2022-10-30T03:49:39.207Z,24.80
2022-10-30T03:52:11.556Z,24.80
2022-10-30T03:54:39.845Z,24.70
2022-10-30T03:57:09.453Z,24.80
2022-10-30T03:59:45.894Z,24.70
2022-10-30T04:02:39.680Z,24.80
2022-10-30T04:05:09.614Z,24.80
2022-10-30T04:07:37.793Z,24.80
2022-10-30T04:10:06.253Z,24.80
2022-10-30T04:12:35.450Z,24.80
2022-10-30T04:15:04.152Z,24.80
2022-10-30T04:17:32.374Z,24.90
2022-10-30T04:20:04.468Z,24.90
2022-10-30T04:22:33.394Z,24.80
2022-10-30T04:25:01.394Z,24.90
2022-10-30T04:27:32.127Z,24.90
2022-10-30T04:30:00.373Z,24.80
2022-10-30T04:32:28.708Z,24.90
2022-10-30T04:34:56.828Z,24.80
2022-10-30T04:37:26.407Z,24.80
2022-10-30T04:39:54.609Z,24.80
2022-10-30T04:42:27.053Z,24.80
2022-10-30T04:44:55.305Z,24.80
2022-10-30T04:47:23.371Z,24.80
2022-10-30T04:49:51.666Z,24.80
2022-10-30T04:52:19.780Z,24.80
2022-10-30T04:54:48.037Z,24.90
2022-10-30T04:57:16.244Z,24.90
2022-10-30T04:59:45.418Z,24.80
2022-10-30T05:02:13.904Z,24.90
2022-10-30T05:04:42.173Z,24.90
2022-10-30T05:07:10.657Z,24.80
2022-10-30T05:09:38.870Z,24.80
2022-10-30T05:12:07.582Z,24.80
2022-10-30T05:14:43.953Z,24.80
2022-10-30T05:17:12.167Z,24.80
2022-10-30T05:19:40.408Z,24.80
2022-10-30T05:22:08.595Z,24.80
2022-10-30T05:24:36.739Z,24.70
2022-10-30T05:27:06.293Z,24.70
2022-10-30T05:29:36.702Z,24.70
2022-10-30T05:32:05.177Z,24.70
2022-10-30T05:34:42.521Z,24.70
2022-10-30T05:37:12.280Z,24.70
2022-10-30T05:39:42.371Z,24.60
2022-10-30T05:42:20.479Z,24.60
2022-10-30T05:45:01.060Z,24.60
2022-10-30T05:47:31.294Z,24.60
2022-10-30T05:49:59.741Z,24.70
2022-10-30T05:52:28.654Z,24.60
2022-10-30T05:54:57.789Z,24.60
2022-10-30T05:57:48.383Z,24.60
2022-10-30T06:00:17.868Z,24.60
2022-10-30T06:02:45.899Z,24.60
2022-10-30T06:05:16.872Z,24.60
2022-10-30T06:07:45.251Z,24.60
2022-10-30T06:10:13.382Z,24.70
2022-10-30T06:13:01.904Z,24.60
2022-10-30T06:15:43.200Z,24.70
2022-10-30T06:18:11.715Z,24.70
2022-10-30T06:20:45.483Z,24.70
2022-10-30T06:23:44.888Z,24.70
2022-10-30T06:26:32.025Z,24.60
2022-10-30T06:29:06.246Z,24.70
2022-10-30T06:31:34.424Z,24.70
2022-10-30T06:34:03.566Z,24.60
2022-10-30T06:36:34.367Z,24.60
2022-10-30T06:39:02.765Z,24.70
2022-10-30T06:41:38.950Z,24.70
2022-10-30T06:44:39.251Z,24.70
2022-10-30T06:47:07.563Z,24.70
2022-10-30T06:49:35.745Z,24.70
2022-10-30T06:52:04.383Z,24.70
2022-10-30T06:54:32.812Z,24.70
2022-10-30T06:57:01.099Z,24.70
2022-10-30T06:59:38.217Z,24.70
2022-10-30T07:02:35.503Z,24.80
2022-10-30T07:05:07.502Z,24.70
2022-10-30T07:07:35.985Z,24.80
2022-10-30T07:10:04.361Z,24.80
2022-10-30T07:12:53.838Z,24.80
2022-10-30T07:18:32.570Z,24.90
2022-10-30T07:21:03.142Z,25.00
2022-10-30T07:23:33.048Z,25.00
2022-10-30T07:26:12.947Z,25.10
2022-10-30T07:28:47.037Z,25.10
2022-10-30T07:31:35.195Z,25.30
2022-10-30T07:34:28.927Z,25.30
2022-10-30T07:37:15.266Z,25.30
2022-10-30T07:39:49.695Z,25.40
2022-10-30T07:42:37.798Z,25.50
2022-10-30T07:45:14.575Z,25.50
2022-10-30T07:48:18.052Z,25.60
2022-10-30T07:50:54.405Z,25.70
2022-10-30T07:53:22.685Z,25.80
2022-10-30T07:55:51.705Z,25.80
2022-10-30T07:58:45.475Z,25.80
2022-10-30T08:01:32.438Z,25.90
2022-10-30T08:04:14.177Z,26.00
2022-10-30T08:06:43.912Z,26.10
2022-10-30T08:09:13.074Z,26.10
2022-10-30T08:11:41.665Z,26.10
2022-10-30T08:14:09.845Z,26.20
2022-10-30T08:16:38.281Z,26.20
2022-10-30T08:19:06.559Z,26.30
2022-10-30T08:21:35.519Z,26.40
2022-10-30T08:24:11.854Z,26.40
2022-10-30T08:26:43.044Z,26.50
2022-10-30T08:29:14.373Z,26.50
2022-10-30T08:31:45.038Z,26.50
2022-10-30T08:34:25.149Z,26.60
2022-10-30T08:36:56.971Z,26.60
2022-10-30T08:39:25.687Z,26.80
2022-10-30T08:42:00.476Z,26.80
2022-10-30T08:44:34.998Z,26.90
2022-10-30T08:47:21.335Z,26.90
2022-10-30T08:49:49.999Z,26.90
2022-10-30T08:52:21.699Z,27.00
2022-10-30T08:55:01.752Z,27.00
2022-10-30T08:57:37.075Z,27.10
2022-10-30T09:00:06.803Z,27.10
2022-10-30T09:03:04.477Z,27.10
2022-10-30T09:05:38.214Z,27.20
2022-10-30T09:08:26.610Z,27.20
2022-10-30T09:11:20.733Z,27.30
2022-10-30T09:13:49.130Z,27.40
2022-10-30T09:16:17.943Z,27.40
2022-10-30T09:18:46.229Z,27.50
2022-10-30T09:21:14.562Z,27.50
2022-10-30T09:23:50.562Z,27.50
2022-10-30T09:26:36.490Z,27.50
2022-10-30T09:29:30.715Z,27.50
2022-10-30T09:32:06.639Z,27.40
2022-10-30T09:34:38.201Z,27.50
2022-10-30T09:37:20.042Z,27.40
2022-10-30T09:39:53.939Z,27.50
2022-10-30T09:42:46.108Z,27.70
2022-10-30T09:45:56.813Z,27.80
2022-10-30T09:48:50.781Z,27.90
2022-10-30T09:52:12.840Z,28.10
2022-10-30T09:55:01.495Z,28.10
2022-10-30T09:57:55.889Z,28.20
2022-10-30T10:00:37.513Z,28.40
2022-10-30T10:03:41.190Z,28.40
2022-10-30T10:06:44.037Z,28.50
2022-10-30T10:09:40.246Z,28.70
2022-10-30T10:12:46.869Z,28.70
2022-10-30T10:15:38.107Z,28.70
2022-10-30T10:21:14.330Z,28.90
2022-10-30T10:23:50.777Z,29.00
2022-10-30T10:26:29.581Z,28.80
2022-10-30T10:29:19.056Z,28.90
2022-10-30T10:31:54.587Z,28.90
2022-10-30T10:34:36.930Z,29.10
2022-10-30T10:37:18.051Z,29.10
2022-10-30T10:40:27.900Z,29.20
2022-10-30T10:43:19.585Z,29.20
2022-10-30T10:46:24.395Z,29.30
2022-10-30T10:49:11.525Z,29.30
2022-10-30T10:51:46.426Z,29.30
2022-10-30T10:54:23.599Z,29.30
2022-10-30T10:56:52.617Z,29.20
2022-10-30T10:59:44.875Z,29.10
2022-10-30T11:02:16.155Z,29.10
2022-10-30T11:04:50.407Z,29.10
2022-10-30T11:07:22.828Z,29.10
2022-10-30T11:09:53.883Z,28.90
2022-10-30T11:12:36.568Z,28.80
2022-10-30T11:15:29.845Z,28.70
2022-10-30T11:18:09.166Z,28.60
2022-10-30T11:20:57.442Z,28.50
2022-10-30T11:23:37.813Z,28.30
2022-10-30T11:26:19.068Z,28.30
2022-10-30T11:28:51.114Z,28.30
2022-10-30T11:31:20.715Z,28.40
2022-10-30T11:33:49.909Z,28.50
2022-10-30T11:36:24.634Z,28.50
2022-10-30T11:38:55.578Z,28.60
2022-10-30T11:41:23.774Z,28.70
2022-10-30T11:43:51.937Z,28.80
2022-10-30T11:46:24.927Z,28.90
2022-10-30T11:48:53.556Z,28.80
2022-10-30T11:51:37.758Z,28.80
2022-10-30T11:54:07.757Z,28.80
2022-10-30T11:56:36.063Z,29.00
2022-10-30T11:59:05.528Z,29.10
2022-10-30T12:01:37.494Z,29.20
2022-10-30T12:04:24.912Z,29.40
2022-10-30T12:07:23.966Z,29.50
2022-10-30T12:09:52.202Z,29.70
2022-10-30T12:12:25.072Z,29.80
2022-10-30T12:14:53.647Z,29.90
2022-10-30T12:17:22.419Z,29.80
2022-10-30T12:19:54.700Z,29.90
2022-10-30T12:22:34.604Z,29.90
2022-10-30T12:25:17.670Z,29.80
2022-10-30T12:27:46.161Z,29.80
2022-10-30T12:30:20.214Z,29.70
2022-10-30T12:32:57.744Z,29.70
2022-10-30T12:36:07.170Z,29.70
2022-10-30T12:38:43.245Z,29.70
2022-10-30T12:41:11.388Z,29.70
2022-10-30T12:43:41.627Z,29.80
2022-10-30T12:46:15.916Z,29.80
2022-10-30T12:48:59.911Z,29.80
2022-10-30T12:51:48.728Z,29.80
2022-10-30T12:54:30.426Z,29.80
2022-10-30T12:57:08.110Z,29.70
2022-10-30T12:59:36.345Z,29.70
2022-10-30T13:02:46.216Z,29.60
2022-10-30T13:05:28.770Z,29.50
2022-10-30T13:08:20.426Z,29.50
2022-10-30T13:10:57.020Z,29.50
2022-10-30T13:13:38.992Z,29.40
2022-10-30T13:16:28.298Z,29.50
2022-10-30T13:19:01.609Z,29.60
2022-10-30T13:21:55.849Z,29.60
2022-10-30T13:25:08.835Z,29.50
2022-10-30T13:27:49.034Z,29.60
2022-10-30T13:30:24.021Z,29.60
2022-10-30T13:33:10.857Z,29.80
2022-10-30T13:36:01.029Z,29.90
2022-10-30T13:38:47.570Z,30.00
2022-10-30T13:41:21.664Z,30.00
2022-10-30T13:44:08.540Z,30.30
2022-10-30T13:46:59.604Z,30.60
2022-10-30T13:49:56.130Z,30.70
2022-10-30T13:55:21.317Z,30.90
2022-10-30T13:57:55.491Z,30.60
2022-10-30T14:00:33.121Z,30.40
2022-10-30T14:03:38.113Z,30.50
2022-10-30T14:06:16.341Z,30.50
2022-10-30T14:09:24.924Z,30.50
2022-10-30T14:11:56.009Z,30.50
2022-10-30T14:14:31.062Z,30.40
2022-10-30T14:17:15.293Z,30.20
2022-10-30T14:20:13.636Z,30.00
2022-10-30T14:22:42.919Z,29.80
2022-10-30T14:25:16.342Z,29.60
2022-10-30T14:27:55.582Z,29.50
2022-10-30T14:30:27.283Z,29.50
2022-10-30T14:32:55.926Z,29.50
2022-10-30T14:35:35.654Z,29.40
2022-10-30T14:38:10.108Z,29.50
2022-10-30T14:40:45.953Z,29.80
2022-10-30T14:43:26.956Z,29.80
2022-10-30T14:46:10.373Z,29.50
2022-10-30T14:48:57.654Z,29.40
2022-10-30T14:51:41.921Z,29.50
2022-10-30T14:54:37.887Z,29.70
2022-10-30T14:57:21.957Z,29.70
2022-10-30T15:00:10.219Z,30.00
2022-10-30T15:02:52.147Z,29.90
2022-10-30T15:05:38.650Z,30.00
2022-10-30T15:08:39.569Z,30.00
2022-10-30T15:11:47.643Z,30.10
2022-10-30T15:14:39.933Z,30.30
2022-10-30T15:17:30.032Z,30.20
2022-10-30T15:20:01.735Z,30.10
2022-10-30T15:22:32.893Z,30.10
2022-10-30T15:25:03.252Z,29.90
2022-10-30T15:27:33.505Z,29.70
2022-10-30T15:30:03.718Z,29.60
2022-10-30T15:32:32.003Z,29.50
2022-10-30T15:35:02.667Z,29.50
2022-10-30T15:37:32.033Z,29.40
2022-10-30T15:40:20.790Z,29.30
2022-10-30T15:42:51.704Z,29.20
2022-10-30T15:45:26.273Z,29.20
2022-10-30T15:48:21.468Z,29.00
2022-10-30T15:51:22.897Z,29.00
2022-10-30T15:53:57.267Z,28.90
2022-10-30T15:59:56.977Z,28.80
2022-10-30T16:02:26.614Z,28.60
2022-10-30T16:04:55.121Z,28.50
2022-10-30T16:07:28.884Z,28.50
2022-10-30T16:10:02.047Z,28.50
2022-10-30T16:12:35.469Z,28.50
2022-10-30T16:15:18.286Z,28.20
2022-10-30T16:17:46.597Z,28.10
2022-10-30T16:20:15.995Z,28.10
2022-10-30T16:22:44.545Z,28.00
2022-10-30T16:25:16.654Z,27.90
2022-10-30T16:27:46.607Z,27.90
2022-10-30T16:30:15.895Z,28.10
2022-10-30T16:32:51.084Z,28.20
2022-10-30T16:35:22.279Z,28.20
2022-10-30T16:37:51.187Z,28.30
2022-10-30T16:40:25.287Z,28.40
2022-10-30T16:42:57.579Z,28.50
2022-10-30T16:45:45.678Z,28.70
2022-10-30T16:48:27.785Z,28.80
2022-10-30T16:51:02.436Z,29.00
2022-10-30T16:53:31.778Z,29.00
2022-10-30T16:56:00.475Z,29.20
2022-10-30T16:58:31.646Z,29.30
2022-10-30T17:01:06.211Z,29.30
2022-10-30T17:03:43.595Z,29.30
2022-10-30T17:06:36.995Z,29.10
2022-10-30T17:09:09.558Z,29.00
2022-10-30T17:11:41.543Z,28.80
2022-10-30T17:14:23.511Z,28.60
2022-10-30T17:16:57.391Z,28.60
2022-10-30T17:19:31.747Z,28.70
2022-10-30T17:22:08.284Z,28.60
2022-10-30T17:24:38.256Z,28.80
2022-10-30T17:27:22.848Z,28.80
2022-10-30T17:29:51.112Z,28.90
2022-10-30T17:32:22.333Z,29.00
2022-10-30T17:35:17.528Z,29.00
2022-10-30T17:37:47.460Z,29.10
2022-10-30T17:40:16.110Z,29.10
2022-10-30T17:42:44.426Z,29.10
2022-10-30T17:45:17.516Z,29.10
2022-10-30T17:47:45.764Z,29.20
2022-10-30T17:50:14.024Z,29.10
2022-10-30T17:52:42.099Z,29.00
2022-10-30T17:55:26.283Z,28.90
2022-10-30T17:57:54.527Z,28.80
2022-10-30T18:00:22.717Z,28.80
2022-10-30T18:02:50.789Z,28.60
2022-10-30T18:05:22.139Z,28.50
2022-10-30T18:10:23.445Z,28.30
2022-10-30T18:12:51.582Z,28.30
2022-10-30T18:15:27.666Z,28.20
2022-10-30T18:17:56.416Z,28.10
2022-10-30T18:20:24.648Z,28.10
2022-10-30T18:22:53.221Z,28.10
2022-10-30T18:25:28.193Z,28.00
2022-10-30T18:27:56.422Z,27.90
2022-10-30T18:30:24.998Z,27.90
2022-10-30T18:32:53.173Z,27.80
2022-10-30T18:35:48.264Z,27.70
2022-10-30T18:38:17.037Z,27.70
2022-10-30T18:40:48.969Z,27.70
2022-10-30T18:43:17.625Z,27.70
2022-10-30T18:45:46.184Z,27.70
2022-10-30T18:48:14.307Z,27.70
2022-10-30T18:50:42.573Z,27.70
2022-10-30T18:53:18.897Z,27.70
2022-10-30T18:58:21.146Z,27.60
2022-10-30T19:01:11.213Z,27.60
2022-10-30T19:03:37.563Z,27.60
2022-10-30T19:06:07.077Z,27.60
2022-10-30T19:08:35.227Z,27.50
2022-10-30T19:11:04.574Z,27.50
2022-10-30T19:13:32.865Z,27.50
2022-10-30T19:16:01.278Z,27.40
2022-10-30T19:18:30.101Z,27.40
2022-10-30T19:21:09.028Z,27.40
2022-10-30T19:23:39.834Z,27.30
2022-10-30T19:26:08.173Z,27.30
2022-10-30T19:28:36.665Z,27.30
2022-10-30T19:31:05.349Z,27.30
2022-10-30T19:33:33.757Z,27.20
2022-10-30T19:36:04.988Z,27.20
2022-10-30T19:38:33.915Z,27.20
2022-10-30T19:41:02.556Z,27.20
2022-10-30T19:43:30.729Z,27.20
2022-10-30T19:45:58.956Z,27.20
2022-10-30T19:48:56.294Z,27.20
2022-10-30T19:51:15.519Z,27.10
2022-10-30T19:53:44.027Z,27.10
2022-10-30T19:56:15.456Z,27.20
2022-10-30T19:58:43.681Z,27.10
2022-10-30T20:01:14.962Z,27.10
2022-10-30T20:03:43.276Z,27.10
2022-10-30T20:06:15.139Z,27.20
2022-10-30T20:08:43.376Z,27.10
2022-10-30T20:11:11.460Z,27.10
2022-10-30T20:13:39.867Z,27.20
2022-10-30T20:16:08.335Z,27.10
2022-10-30T20:18:37.161Z,27.20
2022-10-30T20:21:10.411Z,27.20
2022-10-30T20:23:39.154Z,27.20
2022-10-30T20:26:27.838Z,27.20
2022-10-30T20:28:56.256Z,27.20
2022-10-30T20:31:24.355Z,27.20
2022-10-30T20:33:52.689Z,27.20
2022-10-30T20:36:20.707Z,27.20
2022-10-30T20:38:49.071Z,27.20
2022-10-30T20:41:23.799Z,27.20
2022-10-30T20:43:52.474Z,27.20
2022-10-30T20:46:21.444Z,27.20
2022-10-30T20:48:49.914Z,27.30
2022-10-30T20:51:21.753Z,27.20
2022-10-30T20:53:50.048Z,27.20
2022-10-30T20:56:18.271Z,27.20
2022-10-30T20:58:46.478Z,27.20
2022-10-30T21:01:14.747Z,27.10
2022-10-30T21:03:43.070Z,27.10
2022-10-30T21:06:11.175Z,27.10
2022-10-30T21:08:39.578Z,27.10
2022-10-30T21:11:08.037Z,27.20
2022-10-30T21:13:37.766Z,27.20
2022-10-30T21:16:08.861Z,27.20
2022-10-30T21:18:37.564Z,27.10
2022-10-30T21:21:08.487Z,27.20
2022-10-30T21:23:36.697Z,27.10
2022-10-30T21:26:07.535Z,27.10
2022-10-30T21:28:35.700Z,27.10
2022-10-30T21:31:08.928Z,27.10
2022-10-30T21:33:38.214Z,27.10
2022-10-30T21:36:15.830Z,27.10
2022-10-30T21:38:44.892Z,27.10
2022-10-30T21:41:18.479Z,27.10
2022-10-30T21:43:51.766Z,27.00
2022-10-30T21:46:21.078Z,27.00
2022-10-30T21:48:51.134Z,27.00
2022-10-30T21:51:22.576Z,27.00
2022-10-30T21:53:51.062Z,26.90
2022-10-30T21:56:22.498Z,26.90
2022-10-30T21:58:52.426Z,26.90
2022-10-30T22:01:23.499Z,26.90
2022-10-30T22:03:52.338Z,26.90
2022-10-30T22:06:22.017Z,26.80
2022-10-30T22:08:52.371Z,26.80
2022-10-30T22:11:21.727Z,26.80
2022-10-30T22:13:57.944Z,26.80
2022-10-30T22:16:27.356Z,26.80
2022-10-30T22:18:56.183Z,26.70
2022-10-30T22:21:25.083Z,26.80
2022-10-30T22:23:53.425Z,26.80
2022-10-30T22:26:23.610Z,26.80
2022-10-30T22:28:57.008Z,26.80
2022-10-30T22:31:27.194Z,26.80
2022-10-30T22:33:55.786Z,26.70
2022-10-30T22:36:34.779Z,26.70
2022-10-30T22:39:06.483Z,26.80
2022-10-30T22:41:37.757Z,26.80
2022-10-30T22:44:08.917Z,26.70
2022-10-30T22:46:37.958Z,26.70
2022-10-30T22:49:07.107Z,26.70
2022-10-30T22:51:36.961Z,26.70
2022-10-30T22:54:07.246Z,26.70
2022-10-30T22:56:36.908Z,26.70
2022-10-30T22:59:07.686Z,26.60
2022-10-30T23:01:38.499Z,26.60
2022-10-30T23:04:10.334Z,26.60
2022-10-30T23:06:38.686Z,26.60
2022-10-30T23:09:20.405Z,26.60
2022-10-30T23:11:49.377Z,26.60
2022-10-30T23:14:17.634Z,26.60
2022-10-30T23:16:45.911Z,26.60
2022-10-30T23:19:14.177Z,26.60
2022-10-30T23:21:42.411Z,26.60
2022-10-30T23:24:10.634Z,26.70
2022-10-30T23:26:38.689Z,26.70
2022-10-30T23:29:07.122Z,26.70
2022-10-30T23:31:41.398Z,26.60
2022-10-30T23:34:15.007Z,26.60
2022-10-30T23:36:44.533Z,26.50
2022-10-30T23:39:17.251Z,26.30
2022-10-30T23:41:46.046Z,26.30
2022-10-30T23:44:15.973Z,26.20
2022-10-30T23:46:44.437Z,26.20
2022-10-30T23:49:12.815Z,26.10
2022-10-30T23:51:40.936Z,26.10
2022-10-30T23:54:09.952Z,26.00
2022-10-30T23:56:38.114Z,26.00
2022-10-30T23:59:06.461Z,25.90
